Time,TemperatureF,DewpointF,PressureIn,WindDirection,WindDirectionDegrees,WindSpeedMPH,WindSpeedGustMPH,Humidity,HourlyPrecipIn,Conditions,Clouds,dailyrainin,SolarRadiationWatts/m^2,SoftwareType,DateUTC
2013-08-27 00:42:00,69.0,49.0,30.24,ENE,72,31.0,38.0,49,-99.99,,,-99.99,0.000000,,2013-08-27 06:42:00,
2013-08-27 01:42:00,68.0,51.0,30.25,ENE,63,26.0,30.0,53,-99.99,,,-99.99,0.000000,,2013-08-27 07:42:00,
2013-08-27 02:11:00,67.0,51.0,30.24,ENE,63,25.0,27.0,55,-99.99,,,-99.99,0.000000,,2013-08-27 08:11:00,
2013-08-27 02:42:00,67.0,51.0,30.24,ENE,58,26.0,30.0,56,-99.99,,,-99.99,0.000000,,2013-08-27 08:42:00,
2013-08-27 02:52:00,67.0,51.0,30.24,ENE,63,24.0,29.0,56,-99.99,,,-99.99,0.000000,,2013-08-27 08:52:00,
2013-08-27 03:01:00,67.0,51.0,30.24,ENE,63,24.0,29.0,56,-99.99,,,-99.99,0.000000,,2013-08-27 09:01:00,
2013-08-27 04:43:00,65.0,53.0,30.22,ENE,67,24.0,30.0,64,-99.99,,,-99.99,0.000000,,2013-08-27 10:43:00,
2013-08-27 05:42:00,64.0,54.0,30.23,ENE,68,23.0,27.0,68,-99.99,,,-99.99,0.000000,,2013-08-27 11:42:00,
2013-08-27 06:12:00,64.0,54.0,30.23,ENE,70,25.0,28.0,69,-99.99,,,-99.99,0.000000,,2013-08-27 12:12:00,
2013-08-27 06:42:00,63.0,54.0,30.25,ENE,71,23.0,27.0,72,-99.99,,,-99.99,0.000000,,2013-08-27 12:42:00,
2013-08-27 07:42:00,64.0,54.0,30.27,ENE,62,18.0,20.0,70,-99.99,,,-99.99,73.220001,,2013-08-27 13:42:00,
2013-08-27 07:52:00,65.0,55.0,-100.00,ENE,65,15.0,18.0,68,-99.99,,,-99.99,125.519997,,2013-08-27 13:52:00,
2013-08-27 08:02:00,65.0,55.0,-100.00,ENE,65,15.0,18.0,68,-99.99,,,-99.99,125.519997,,2013-08-27 14:02:00,
2013-08-27 08:42:00,67.0,56.0,30.29,ENE,70,15.0,18.0,67,-99.99,,,-99.99,199.440002,,2013-08-27 14:42:00,
2013-08-27 09:22:00,68.0,56.0,30.28,ENE,72,21.0,25.0,66,-99.99,,,-99.99,195.949997,,2013-08-27 15:22:00,
2013-08-27 09:45:00,69.0,57.0,30.29,East,81,21.0,25.0,64,-99.99,,,-99.99,430.950012,,2013-08-27 15:45:00,
2013-08-27 09:58:00,69.0,57.0,-100.00,East,83,21.0,24.0,65,-99.99,,,-99.99,401.660004,,2013-08-27 15:58:00,
2013-08-27 10:09:00,69.0,57.0,-100.00,East,83,21.0,24.0,65,-99.99,,,-99.99,401.660004,,2013-08-27 16:09:00,
2013-08-27 10:28:00,68.0,57.0,30.29,East,82,23.0,30.0,67,-99.99,,,-99.99,304.730011,,2013-08-27 16:28:00,
2013-08-27 10:46:00,69.0,57.0,30.29,East,91,22.0,30.0,64,-99.99,,,-99.99,458.149994,,2013-08-27 16:46:00,
2013-08-27 11:23:00,71.0,56.0,30.28,East,86,28.0,35.0,58,-99.99,,,-99.99,512.539978,,2013-08-27 17:23:00,
2013-08-27 11:43:00,71.0,56.0,30.28,East,83,24.0,34.0,59,-99.99,,,-99.99,230.820007,,2013-08-27 17:43:00,
2013-08-27 11:52:00,70.0,56.0,30.28,East,90,24.0,30.0,60,-99.99,,,-99.99,333.329987,,2013-08-27 17:52:00,
2013-08-27 12:02:00,70.0,56.0,30.28,East,90,24.0,30.0,60,-99.99,,,-99.99,333.329987,,2013-08-27 18:02:00,
2013-08-27 12:22:00,74.0,54.0,30.28,ENE,75,20.0,29.0,50,-99.99,,,-99.99,859.809998,,2013-08-27 18:22:00,
2013-08-27 12:42:00,74.0,53.0,30.27,ENE,77,23.0,31.0,49,-99.99,,,-99.99,757.299988,,2013-08-27 18:42:00,
2013-08-27 13:22:00,74.0,52.0,30.26,East,81,22.0,30.0,46,-99.99,,,-99.99,407.940002,,2013-08-27 19:22:00,
2013-08-27 13:32:00,74.0,52.0,30.26,East,81,22.0,30.0,46,-99.99,,,-99.99,407.940002,,2013-08-27 19:32:00,
2013-08-27 13:52:00,74.0,53.0,30.25,East,93,24.0,38.0,47,-99.99,,,-99.99,264.290009,,2013-08-27 19:52:00,
2013-08-27 14:02:00,74.0,53.0,30.25,East,93,24.0,38.0,47,-99.99,,,-99.99,264.290009,,2013-08-27 20:02:00,